sensor_id;sensor_type;location;lat;lon;timestamp;P1;durP1;ratioP1;P2;durP2;ratioP2
3689;SDS011;1861;50.240;8.596;2022-12-20T00:01:28;31.50;;;14.43;;
3689;SDS011;1861;50.240;8.596;2022-12-20T00:03:58;26.50;;;13.33;;
3689;SDS011;1861;50.240;8.596;2022-12-20T00:06:28;26.53;;;13.57;;
3689;SDS011;1861;50.240;8.596;2022-12-20T00:08:57;25.80;;;13.47;;
3689;SDS011;1861;50.240;8.596;2022-12-20T00:11:26;26.07;;;13.47;;
3689;SDS011;1861;50.240;8.596;2022-12-20T00:13:56;30.00;;;12.77;;
3689;SDS011;1861;50.240;8.596;2022-12-20T00:16:25;20.13;;;10.67;;
3689;SDS011;1861;50.240;8.596;2022-12-20T00:18:55;23.43;;;11.30;;
3689;SDS011;1861;50.240;8.596;2022-12-20T00:21:25;21.37;;;10.77;;
3689;SDS011;1861;50.240;8.596;2022-12-20T00:23:53;25.27;;;12.37;;
3689;SDS011;1861;50.240;8.596;2022-12-20T00:26:23;28.13;;;12.17;;
3689;SDS011;1861;50.240;8.596;2022-12-20T00:28:54;25.10;;;13.43;;
3689;SDS011;1861;50.240;8.596;2022-12-20T00:31:24;27.53;;;13.27;;
3689;SDS011;1861;50.240;8.596;2022-12-20T00:33:53;27.10;;;13.40;;
3689;SDS011;1861;50.240;8.596;2022-12-20T00:36:24;26.57;;;12.87;;
3689;SDS011;1861;50.240;8.596;2022-12-20T00:38:54;23.93;;;12.40;;
3689;SDS011;1861;50.240;8.596;2022-12-20T00:41:24;29.67;;;13.00;;
3689;SDS011;1861;50.240;8.596;2022-12-20T00:43:55;26.53;;;13.00;;
3689;SDS011;1861;50.240;8.596;2022-12-20T00:46:23;24.60;;;12.70;;
3689;SDS011;1861;50.240;8.596;2022-12-20T00:48:53;26.17;;;11.73;;
3689;SDS011;1861;50.240;8.596;2022-12-20T00:51:23;20.13;;;11.60;;
3689;SDS011;1861;50.240;8.596;2022-12-20T00:53:52;21.90;;;12.00;;
3689;SDS011;1861;50.240;8.596;2022-12-20T00:56:21;23.70;;;11.30;;
3689;SDS011;1861;50.240;8.596;2022-12-20T00:58:51;23.03;;;10.83;;
3689;SDS011;1861;50.240;8.596;2022-12-20T01:01:22;20.53;;;11.17;;
3689;SDS011;1861;50.240;8.596;2022-12-20T01:03:52;20.60;;;11.20;;
3689;SDS011;1861;50.240;8.596;2022-12-20T01:06:21;19.30;;;10.83;;
3689;SDS011;1861;50.240;8.596;2022-12-20T01:08:50;21.93;;;10.50;;
3689;SDS011;1861;50.240;8.596;2022-12-20T01:11:20;21.57;;;11.43;;
3689;SDS011;1861;50.240;8.596;2022-12-20T01:13:51;22.13;;;11.17;;
3689;SDS011;1861;50.240;8.596;2022-12-20T01:16:23;22.20;;;11.47;;
3689;SDS011;1861;50.240;8.596;2022-12-20T01:18:53;15.57;;;9.27;;
3689;SDS011;1861;50.240;8.596;2022-12-20T01:21:22;19.13;;;10.20;;
3689;SDS011;1861;50.240;8.596;2022-12-20T01:23:53;19.20;;;11.00;;
3689;SDS011;1861;50.240;8.596;2022-12-20T01:26:22;17.33;;;9.57;;
3689;SDS011;1861;50.240;8.596;2022-12-20T01:28:53;16.73;;;10.13;;
3689;SDS011;1861;50.240;8.596;2022-12-20T01:31:24;20.63;;;10.10;;
3689;SDS011;1861;50.240;8.596;2022-12-20T01:33:53;18.37;;;9.93;;
3689;SDS011;1861;50.240;8.596;2022-12-20T01:36:23;18.43;;;10.13;;
3689;SDS011;1861;50.240;8.596;2022-12-20T01:38:54;23.00;;;11.23;;
3689;SDS011;1861;50.240;8.596;2022-12-20T01:41:24;19.30;;;9.97;;
3689;SDS011;1861;50.240;8.596;2022-12-20T01:43:55;18.67;;;10.70;;
3689;SDS011;1861;50.240;8.596;2022-12-20T01:46:26;20.07;;;11.67;;
3689;SDS011;1861;50.240;8.596;2022-12-20T01:48:57;20.43;;;10.33;;
3689;SDS011;1861;50.240;8.596;2022-12-20T01:51:30;20.50;;;10.60;;
3689;SDS011;1861;50.240;8.596;2022-12-20T01:54:01;18.67;;;10.63;;
3689;SDS011;1861;50.240;8.596;2022-12-20T01:56:33;21.37;;;11.07;;
3689;SDS011;1861;50.240;8.596;2022-12-20T01:59:04;19.63;;;11.20;;
3689;SDS011;1861;50.240;8.596;2022-12-20T02:01:34;21.10;;;11.00;;
3689;SDS011;1861;50.240;8.596;2022-12-20T02:04:02;23.07;;;11.63;;
3689;SDS011;1861;50.240;8.596;2022-12-20T02:06:30;25.03;;;12.80;;
3689;SDS011;1861;50.240;8.596;2022-12-20T02:08:59;25.77;;;12.90;;
3689;SDS011;1861;50.240;8.596;2022-12-20T02:11:36;25.13;;;11.87;;
3689;SDS011;1861;50.240;8.596;2022-12-20T02:14:18;18.37;;;10.10;;
3689;SDS011;1861;50.240;8.596;2022-12-20T02:17:00;22.57;;;10.50;;
3689;SDS011;1861;50.240;8.596;2022-12-20T02:19:59;25.17;;;12.47;;
3689;SDS011;1861;50.240;8.596;2022-12-20T02:22:40;22.60;;;11.50;;
3689;SDS011;1861;50.240;8.596;2022-12-20T02:28:22;22.40;;;12.10;;
3689;SDS011;1861;50.240;8.596;2022-12-20T02:31:03;22.93;;;12.07;;
3689;SDS011;1861;50.240;8.596;2022-12-20T02:33:34;22.70;;;10.97;;
3689;SDS011;1861;50.240;8.596;2022-12-20T02:36:03;21.10;;;11.43;;
3689;SDS011;1861;50.240;8.596;2022-12-20T02:38:35;25.63;;;12.03;;
3689;SDS011;1861;50.240;8.596;2022-12-20T02:41:05;24.53;;;11.73;;
3689;SDS011;1861;50.240;8.596;2022-12-20T02:43:38;22.77;;;12.20;;
3689;SDS011;1861;50.240;8.596;2022-12-20T02:46:29;38.43;;;11.50;;
3689;SDS011;1861;50.240;8.596;2022-12-20T02:48:59;20.23;;;10.60;;
3689;SDS011;1861;50.240;8.596;2022-12-20T02:51:31;19.70;;;11.10;;
3689;SDS011;1861;50.240;8.596;2022-12-20T02:54:00;20.37;;;11.50;;
3689;SDS011;1861;50.240;8.596;2022-12-20T02:56:30;19.07;;;10.67;;
3689;SDS011;1861;50.240;8.596;2022-12-20T02:59:01;23.63;;;11.20;;
3689;SDS011;1861;50.240;8.596;2022-12-20T03:01:38;21.37;;;10.87;;
3689;SDS011;1861;50.240;8.596;2022-12-20T03:04:11;26.10;;;10.77;;
3689;SDS011;1861;50.240;8.596;2022-12-20T03:06:45;20.43;;;10.60;;
3689;SDS011;1861;50.240;8.596;2022-12-20T03:09:22;22.50;;;10.43;;
3689;SDS011;1861;50.240;8.596;2022-12-20T03:11:51;22.30;;;11.20;;
3689;SDS011;1861;50.240;8.596;2022-12-20T03:14:19;20.20;;;10.77;;
3689;SDS011;1861;50.240;8.596;2022-12-20T03:16:51;19.73;;;10.30;;
3689;SDS011;1861;50.240;8.596;2022-12-20T03:19:19;20.80;;;10.17;;
3689;SDS011;1861;50.240;8.596;2022-12-20T03:21:48;20.63;;;10.63;;
3689;SDS011;1861;50.240;8.596;2022-12-20T03:24:16;16.00;;;9.93;;
3689;SDS011;1861;50.240;8.596;2022-12-20T03:26:45;22.03;;;10.27;;
3689;SDS011;1861;50.240;8.596;2022-12-20T03:29:13;17.60;;;10.50;;
3689;SDS011;1861;50.240;8.596;2022-12-20T03:31:41;18.53;;;10.50;;
3689;SDS011;1861;50.240;8.596;2022-12-20T03:34:11;24.23;;;10.97;;
3689;SDS011;1861;50.240;8.596;2022-12-20T03:36:39;20.17;;;10.83;;
3689;SDS011;1861;50.240;8.596;2022-12-20T03:39:07;24.13;;;10.90;;
3689;SDS011;1861;50.240;8.596;2022-12-20T03:41:37;18.10;;;10.37;;
3689;SDS011;1861;50.240;8.596;2022-12-20T03:44:08;24.73;;;13.17;;
3689;SDS011;1861;50.240;8.596;2022-12-20T03:46:36;21.50;;;10.97;;
3689;SDS011;1861;50.240;8.596;2022-12-20T03:49:04;21.20;;;11.60;;
3689;SDS011;1861;50.240;8.596;2022-12-20T03:51:40;25.37;;;12.37;;
3689;SDS011;1861;50.240;8.596;2022-12-20T03:54:08;24.93;;;11.70;;
3689;SDS011;1861;50.240;8.596;2022-12-20T03:57:03;17.03;;;10.73;;
3689;SDS011;1861;50.240;8.596;2022-12-20T03:59:31;20.33;;;11.10;;
3689;SDS011;1861;50.240;8.596;2022-12-20T04:02:02;19.73;;;11.60;;
3689;SDS011;1861;50.240;8.596;2022-12-20T04:04:30;23.90;;;10.93;;
3689;SDS011;1861;50.240;8.596;2022-12-20T04:07:00;21.57;;;11.20;;
3689;SDS011;1861;50.240;8.596;2022-12-20T04:09:29;19.90;;;11.17;;
3689;SDS011;1861;50.240;8.596;2022-12-20T04:12:03;23.47;;;10.30;;
3689;SDS011;1861;50.240;8.596;2022-12-20T04:14:34;17.20;;;9.63;;
3689;SDS011;1861;50.240;8.596;2022-12-20T04:17:04;24.63;;;10.53;;
3689;SDS011;1861;50.240;8.596;2022-12-20T04:19:33;21.77;;;11.17;;
3689;SDS011;1861;50.240;8.596;2022-12-20T04:22:04;16.80;;;10.03;;
3689;SDS011;1861;50.240;8.596;2022-12-20T04:24:45;21.80;;;10.83;;
3689;SDS011;1861;50.240;8.596;2022-12-20T04:27:30;21.40;;;11.23;;
3689;SDS011;1861;50.240;8.596;2022-12-20T04:29:59;22.80;;;11.87;;
3689;SDS011;1861;50.240;8.596;2022-12-20T04:32:28;21.50;;;11.50;;
3689;SDS011;1861;50.240;8.596;2022-12-20T04:34:56;26.30;;;10.77;;
3689;SDS011;1861;50.240;8.596;2022-12-20T04:37:25;19.80;;;11.67;;
3689;SDS011;1861;50.240;8.596;2022-12-20T04:39:55;32.70;;;12.77;;
3689;SDS011;1861;50.240;8.596;2022-12-20T04:42:34;23.80;;;11.70;;
3689;SDS011;1861;50.240;8.596;2022-12-20T04:45:03;21.10;;;11.37;;
3689;SDS011;1861;50.240;8.596;2022-12-20T04:47:32;23.47;;;12.27;;
3689;SDS011;1861;50.240;8.596;2022-12-20T04:50:00;23.43;;;12.17;;
3689;SDS011;1861;50.240;8.596;2022-12-20T04:52:29;24.90;;;11.20;;
3689;SDS011;1861;50.240;8.596;2022-12-20T04:55:15;26.77;;;11.77;;
3689;SDS011;1861;50.240;8.596;2022-12-20T04:57:43;18.40;;;10.60;;
3689;SDS011;1861;50.240;8.596;2022-12-20T05:00:12;20.00;;;10.77;;
3689;SDS011;1861;50.240;8.596;2022-12-20T05:02:43;17.60;;;10.83;;
3689;SDS011;1861;50.240;8.596;2022-12-20T05:05:15;21.40;;;12.10;;
3689;SDS011;1861;50.240;8.596;2022-12-20T05:07:50;19.20;;;10.60;;
3689;SDS011;1861;50.240;8.596;2022-12-20T05:10:18;19.33;;;10.07;;
3689;SDS011;1861;50.240;8.596;2022-12-20T05:12:48;16.40;;;9.57;;
3689;SDS011;1861;50.240;8.596;2022-12-20T05:15:27;21.13;;;11.07;;
3689;SDS011;1861;50.240;8.596;2022-12-20T05:17:57;20.80;;;10.87;;
3689;SDS011;1861;50.240;8.596;2022-12-20T05:20:34;16.77;;;9.87;;
3689;SDS011;1861;50.240;8.596;2022-12-20T05:23:04;19.03;;;10.23;;
3689;SDS011;1861;50.240;8.596;2022-12-20T05:25:57;19.50;;;10.47;;
3689;SDS011;1861;50.240;8.596;2022-12-20T05:28:45;16.50;;;9.00;;
3689;SDS011;1861;50.240;8.596;2022-12-20T05:31:13;19.93;;;9.70;;
3689;SDS011;1861;50.240;8.596;2022-12-20T05:33:42;17.30;;;9.70;;
3689;SDS011;1861;50.240;8.596;2022-12-20T05:36:11;18.33;;;8.97;;
3689;SDS011;1861;50.240;8.596;2022-12-20T05:38:40;15.43;;;9.40;;
3689;SDS011;1861;50.240;8.596;2022-12-20T05:41:13;16.37;;;9.03;;
3689;SDS011;1861;50.240;8.596;2022-12-20T05:43:46;15.13;;;8.80;;
3689;SDS011;1861;50.240;8.596;2022-12-20T05:46:14;15.13;;;9.47;;
3689;SDS011;1861;50.240;8.596;2022-12-20T05:48:51;14.70;;;9.00;;
3689;SDS011;1861;50.240;8.596;2022-12-20T05:51:20;15.60;;;8.93;;
3689;SDS011;1861;50.240;8.596;2022-12-20T05:53:58;16.07;;;9.07;;
3689;SDS011;1861;50.240;8.596;2022-12-20T05:56:46;15.83;;;9.00;;
3689;SDS011;1861;50.240;8.596;2022-12-20T05:59:16;17.60;;;9.90;;
3689;SDS011;1861;50.240;8.596;2022-12-20T06:01:45;15.87;;;10.20;;
3689;SDS011;1861;50.240;8.596;2022-12-20T06:04:13;14.90;;;9.73;;
3689;SDS011;1861;50.240;8.596;2022-12-20T06:06:43;16.20;;;9.17;;
3689;SDS011;1861;50.240;8.596;2022-12-20T06:09:15;15.03;;;9.47;;
3689;SDS011;1861;50.240;8.596;2022-12-20T06:11:50;17.00;;;9.37;;
3689;SDS011;1861;50.240;8.596;2022-12-20T06:14:19;16.80;;;9.27;;
3689;SDS011;1861;50.240;8.596;2022-12-20T06:16:48;21.10;;;9.50;;
3689;SDS011;1861;50.240;8.596;2022-12-20T06:19:17;16.97;;;8.57;;
3689;SDS011;1861;50.240;8.596;2022-12-20T06:21:50;15.40;;;8.60;;
3689;SDS011;1861;50.240;8.596;2022-12-20T06:24:26;14.17;;;9.33;;
3689;SDS011;1861;50.240;8.596;2022-12-20T06:26:55;15.60;;;9.13;;
3689;SDS011;1861;50.240;8.596;2022-12-20T06:29:24;17.27;;;8.63;;
3689;SDS011;1861;50.240;8.596;2022-12-20T06:32:00;14.03;;;8.70;;
3689;SDS011;1861;50.240;8.596;2022-12-20T06:34:30;18.90;;;8.87;;
3689;SDS011;1861;50.240;8.596;2022-12-20T06:36:59;19.23;;;11.30;;
3689;SDS011;1861;50.240;8.596;2022-12-20T06:39:32;17.00;;;10.20;;
3689;SDS011;1861;50.240;8.596;2022-12-20T06:42:02;16.03;;;8.70;;
3689;SDS011;1861;50.240;8.596;2022-12-20T06:44:32;27.67;;;10.70;;
3689;SDS011;1861;50.240;8.596;2022-12-20T06:47:00;18.10;;;10.43;;
3689;SDS011;1861;50.240;8.596;2022-12-20T06:49:29;14.70;;;9.53;;
3689;SDS011;1861;50.240;8.596;2022-12-20T06:51:57;22.63;;;10.57;;
3689;SDS011;1861;50.240;8.596;2022-12-20T06:54:43;16.20;;;8.20;;
3689;SDS011;1861;50.240;8.596;2022-12-20T06:57:12;14.83;;;8.37;;
3689;SDS011;1861;50.240;8.596;2022-12-20T06:59:42;14.17;;;7.87;;
3689;SDS011;1861;50.240;8.596;2022-12-20T07:02:10;14.97;;;8.20;;
3689;SDS011;1861;50.240;8.596;2022-12-20T07:04:39;26.00;;;11.07;;
3689;SDS011;1861;50.240;8.596;2022-12-20T07:07:07;57.57;;;16.03;;
3689;SDS011;1861;50.240;8.596;2022-12-20T07:09:35;36.40;;;12.63;;
3689;SDS011;1861;50.240;8.596;2022-12-20T07:12:08;26.83;;;11.27;;
3689;SDS011;1861;50.240;8.596;2022-12-20T07:14:36;23.83;;;9.93;;
3689;SDS011;1861;50.240;8.596;2022-12-20T07:17:04;19.63;;;10.20;;
3689;SDS011;1861;50.240;8.596;2022-12-20T07:19:33;19.73;;;10.03;;
3689;SDS011;1861;50.240;8.596;2022-12-20T07:22:02;18.00;;;10.63;;
3689;SDS011;1861;50.240;8.596;2022-12-20T07:24:31;23.00;;;11.03;;
3689;SDS011;1861;50.240;8.596;2022-12-20T07:26:59;13.27;;;8.30;;
3689;SDS011;1861;50.240;8.596;2022-12-20T07:29:29;17.23;;;9.27;;
3689;SDS011;1861;50.240;8.596;2022-12-20T07:31:57;14.67;;;8.63;;
3689;SDS011;1861;50.240;8.596;2022-12-20T07:34:26;19.07;;;9.03;;
3689;SDS011;1861;50.240;8.596;2022-12-20T07:36:54;16.40;;;9.13;;
3689;SDS011;1861;50.240;8.596;2022-12-20T07:39:22;16.07;;;9.07;;
3689;SDS011;1861;50.240;8.596;2022-12-20T07:41:51;14.80;;;8.40;;
3689;SDS011;1861;50.240;8.596;2022-12-20T07:44:21;19.27;;;9.87;;
3689;SDS011;1861;50.240;8.596;2022-12-20T07:46:51;18.30;;;9.43;;
3689;SDS011;1861;50.240;8.596;2022-12-20T07:49:19;14.20;;;9.47;;
3689;SDS011;1861;50.240;8.596;2022-12-20T07:51:48;19.97;;;10.80;;
3689;SDS011;1861;50.240;8.596;2022-12-20T07:54:18;16.37;;;9.20;;
3689;SDS011;1861;50.240;8.596;2022-12-20T07:56:51;18.60;;;9.13;;
3689;SDS011;1861;50.240;8.596;2022-12-20T07:59:23;16.90;;;8.97;;
3689;SDS011;1861;50.240;8.596;2022-12-20T08:01:57;15.40;;;8.80;;
3689;SDS011;1861;50.240;8.596;2022-12-20T08:04:30;15.63;;;7.87;;
3689;SDS011;1861;50.240;8.596;2022-12-20T08:07:00;15.80;;;8.97;;
3689;SDS011;1861;50.240;8.596;2022-12-20T08:09:29;15.63;;;9.37;;
3689;SDS011;1861;50.240;8.596;2022-12-20T08:12:01;11.97;;;8.30;;
3689;SDS011;1861;50.240;8.596;2022-12-20T08:14:29;16.97;;;9.40;;
3689;SDS011;1861;50.240;8.596;2022-12-20T08:16:59;14.50;;;8.60;;
3689;SDS011;1861;50.240;8.596;2022-12-20T08:19:28;15.27;;;8.50;;
3689;SDS011;1861;50.240;8.596;2022-12-20T08:21:58;18.57;;;8.50;;
3689;SDS011;1861;50.240;8.596;2022-12-20T08:24:26;16.60;;;9.13;;
3689;SDS011;1861;50.240;8.596;2022-12-20T08:26:54;19.40;;;8.17;;
3689;SDS011;1861;50.240;8.596;2022-12-20T08:29:23;26.40;;;9.30;;
3689;SDS011;1861;50.240;8.596;2022-12-20T08:31:51;15.03;;;8.60;;
3689;SDS011;1861;50.240;8.596;2022-12-20T08:34:20;14.63;;;8.40;;
3689;SDS011;1861;50.240;8.596;2022-12-20T08:36:48;16.33;;;8.90;;
3689;SDS011;1861;50.240;8.596;2022-12-20T08:39:17;17.00;;;9.03;;
3689;SDS011;1861;50.240;8.596;2022-12-20T08:41:45;15.23;;;8.93;;
3689;SDS011;1861;50.240;8.596;2022-12-20T08:44:13;14.87;;;8.80;;
3689;SDS011;1861;50.240;8.596;2022-12-20T08:46:41;14.10;;;8.47;;
3689;SDS011;1861;50.240;8.596;2022-12-20T08:49:09;15.07;;;8.80;;
3689;SDS011;1861;50.240;8.596;2022-12-20T08:51:39;13.60;;;8.73;;
3689;SDS011;1861;50.240;8.596;2022-12-20T08:54:07;16.53;;;8.53;;
3689;SDS011;1861;50.240;8.596;2022-12-20T08:56:35;17.60;;;9.07;;
3689;SDS011;1861;50.240;8.596;2022-12-20T08:59:04;12.17;;;7.60;;
3689;SDS011;1861;50.240;8.596;2022-12-20T09:01:32;15.00;;;8.90;;
3689;SDS011;1861;50.240;8.596;2022-12-20T09:04:00;13.97;;;7.67;;
3689;SDS011;1861;50.240;8.596;2022-12-20T09:06:28;13.50;;;8.60;;
3689;SDS011;1861;50.240;8.596;2022-12-20T09:08:57;12.80;;;8.30;;
3689;SDS011;1861;50.240;8.596;2022-12-20T09:11:26;13.10;;;8.40;;
3689;SDS011;1861;50.240;8.596;2022-12-20T09:13:55;14.27;;;9.30;;
3689;SDS011;1861;50.240;8.596;2022-12-20T09:16:25;15.60;;;9.30;;
3689;SDS011;1861;50.240;8.596;2022-12-20T09:18:56;17.50;;;9.30;;
3689;SDS011;1861;50.240;8.596;2022-12-20T09:21:31;14.80;;;8.87;;
3689;SDS011;1861;50.240;8.596;2022-12-20T09:24:02;18.20;;;9.60;;
3689;SDS011;1861;50.240;8.596;2022-12-20T09:26:31;17.07;;;10.73;;
3689;SDS011;1861;50.240;8.596;2022-12-20T09:29:00;22.47;;;10.73;;
3689;SDS011;1861;50.240;8.596;2022-12-20T09:31:30;23.97;;;11.17;;
3689;SDS011;1861;50.240;8.596;2022-12-20T09:33:58;16.97;;;10.00;;
3689;SDS011;1861;50.240;8.596;2022-12-20T09:36:27;21.17;;;11.23;;
3689;SDS011;1861;50.240;8.596;2022-12-20T09:38:56;19.10;;;11.37;;
3689;SDS011;1861;50.240;8.596;2022-12-20T09:41:27;19.83;;;11.30;;
3689;SDS011;1861;50.240;8.596;2022-12-20T09:43:58;22.93;;;12.17;;
3689;SDS011;1861;50.240;8.596;2022-12-20T09:46:30;22.33;;;12.10;;
3689;SDS011;1861;50.240;8.596;2022-12-20T09:48:58;23.67;;;11.00;;
3689;SDS011;1861;50.240;8.596;2022-12-20T09:51:34;21.70;;;11.40;;
3689;SDS011;1861;50.240;8.596;2022-12-20T09:54:21;23.60;;;11.90;;
3689;SDS011;1861;50.240;8.596;2022-12-20T09:56:59;20.83;;;11.03;;
3689;SDS011;1861;50.240;8.596;2022-12-20T09:59:33;25.50;;;12.83;;
3689;SDS011;1861;50.240;8.596;2022-12-20T10:02:08;22.93;;;12.30;;
3689;SDS011;1861;50.240;8.596;2022-12-20T10:04:57;19.10;;;11.43;;
3689;SDS011;1861;50.240;8.596;2022-12-20T10:07:30;23.73;;;11.90;;
3689;SDS011;1861;50.240;8.596;2022-12-20T10:13:16;20.47;;;11.43;;
3689;SDS011;1861;50.240;8.596;2022-12-20T10:15:53;22.97;;;11.90;;
3689;SDS011;1861;50.240;8.596;2022-12-20T10:18:33;23.83;;;11.53;;
3689;SDS011;1861;50.240;8.596;2022-12-20T10:21:15;19.20;;;10.10;;
3689;SDS011;1861;50.240;8.596;2022-12-20T10:23:50;26.00;;;13.10;;
3689;SDS011;1861;50.240;8.596;2022-12-20T10:26:26;18.93;;;11.60;;
3689;SDS011;1861;50.240;8.596;2022-12-20T10:28:56;21.03;;;12.13;;
3689;SDS011;1861;50.240;8.596;2022-12-20T10:31:24;23.03;;;12.77;;
3689;SDS011;1861;50.240;8.596;2022-12-20T10:33:53;17.80;;;11.23;;
3689;SDS011;1861;50.240;8.596;2022-12-20T10:36:24;22.93;;;13.13;;
3689;SDS011;1861;50.240;8.596;2022-12-20T10:38:53;23.23;;;12.10;;
3689;SDS011;1861;50.240;8.596;2022-12-20T10:41:24;23.10;;;11.97;;
3689;SDS011;1861;50.240;8.596;2022-12-20T10:43:57;22.00;;;12.40;;
3689;SDS011;1861;50.240;8.596;2022-12-20T10:46:33;29.70;;;13.73;;
3689;SDS011;1861;50.240;8.596;2022-12-20T10:52:09;21.43;;;12.13;;
3689;SDS011;1861;50.240;8.596;2022-12-20T10:54:40;23.03;;;12.27;;
3689;SDS011;1861;50.240;8.596;2022-12-20T10:57:13;24.87;;;13.10;;
3689;SDS011;1861;50.240;8.596;2022-12-20T10:59:48;21.30;;;11.73;;
3689;SDS011;1861;50.240;8.596;2022-12-20T11:02:25;21.97;;;10.87;;
3689;SDS011;1861;50.240;8.596;2022-12-20T11:05:16;18.23;;;11.93;;
3689;SDS011;1861;50.240;8.596;2022-12-20T11:07:52;19.80;;;10.80;;
3689;SDS011;1861;50.240;8.596;2022-12-20T11:10:41;21.33;;;11.43;;
3689;SDS011;1861;50.240;8.596;2022-12-20T11:13:18;19.17;;;10.40;;
3689;SDS011;1861;50.240;8.596;2022-12-20T11:15:50;21.93;;;11.40;;
3689;SDS011;1861;50.240;8.596;2022-12-20T11:18:26;21.33;;;11.00;;
3689;SDS011;1861;50.240;8.596;2022-12-20T11:21:08;20.50;;;11.90;;
3689;SDS011;1861;50.240;8.596;2022-12-20T11:23:55;25.50;;;10.43;;
3689;SDS011;1861;50.240;8.596;2022-12-20T11:26:32;21.47;;;10.37;;
3689;SDS011;1861;50.240;8.596;2022-12-20T11:29:14;18.17;;;10.40;;
3689;SDS011;1861;50.240;8.596;2022-12-20T11:32:06;23.43;;;12.27;;
3689;SDS011;1861;50.240;8.596;2022-12-20T11:34:44;14.93;;;9.60;;
3689;SDS011;1861;50.240;8.596;2022-12-20T11:37:21;21.40;;;10.97;;
3689;SDS011;1861;50.240;8.596;2022-12-20T11:40:02;18.20;;;10.60;;
3689;SDS011;1861;50.240;8.596;2022-12-20T11:42:42;14.27;;;9.80;;
3689;SDS011;1861;50.240;8.596;2022-12-20T11:45:24;15.47;;;8.87;;
3689;SDS011;1861;50.240;8.596;2022-12-20T11:48:02;16.87;;;9.10;;
3689;SDS011;1861;50.240;8.596;2022-12-20T11:50:44;12.93;;;8.17;;
3689;SDS011;1861;50.240;8.596;2022-12-20T11:53:22;14.17;;;9.10;;
3689;SDS011;1861;50.240;8.596;2022-12-20T11:55:56;17.00;;;8.70;;
3689;SDS011;1861;50.240;8.596;2022-12-20T11:58:28;15.30;;;8.77;;
3689;SDS011;1861;50.240;8.596;2022-12-20T12:01:02;15.13;;;8.93;;
3689;SDS011;1861;50.240;8.596;2022-12-20T12:03:35;14.77;;;8.13;;
3689;SDS011;1861;50.240;8.596;2022-12-20T12:06:05;16.00;;;8.97;;
3689;SDS011;1861;50.240;8.596;2022-12-20T12:08:40;13.80;;;8.43;;
3689;SDS011;1861;50.240;8.596;2022-12-20T12:11:14;16.87;;;9.13;;
3689;SDS011;1861;50.240;8.596;2022-12-20T12:14:05;18.40;;;9.33;;
3689;SDS011;1861;50.240;8.596;2022-12-20T12:16:43;13.33;;;8.10;;
3689;SDS011;1861;50.240;8.596;2022-12-20T12:19:18;17.93;;;9.10;;
3689;SDS011;1861;50.240;8.596;2022-12-20T12:21:47;17.70;;;9.23;;
3689;SDS011;1861;50.240;8.596;2022-12-20T12:24:22;15.87;;;10.20;;
3689;SDS011;1861;50.240;8.596;2022-12-20T12:26:54;15.90;;;9.20;;
3689;SDS011;1861;50.240;8.596;2022-12-20T12:29:25;19.00;;;10.93;;
3689;SDS011;1861;50.240;8.596;2022-12-20T12:31:57;14.87;;;10.03;;
3689;SDS011;1861;50.240;8.596;2022-12-20T12:34:38;19.50;;;11.67;;
3689;SDS011;1861;50.240;8.596;2022-12-20T12:37:25;17.90;;;10.10;;
3689;SDS011;1861;50.240;8.596;2022-12-20T12:40:11;19.93;;;11.27;;
3689;SDS011;1861;50.240;8.596;2022-12-20T12:43:12;23.10;;;11.73;;
3689;SDS011;1861;50.240;8.596;2022-12-20T12:45:59;19.37;;;10.47;;
3689;SDS011;1861;50.240;8.596;2022-12-20T12:48:36;19.37;;;11.60;;
3689;SDS011;1861;50.240;8.596;2022-12-20T12:51:09;20.30;;;11.27;;
3689;SDS011;1861;50.240;8.596;2022-12-20T12:53:41;18.07;;;10.30;;
3689;SDS011;1861;50.240;8.596;2022-12-20T13:02:24;20.03;;;10.90;;
3689;SDS011;1861;50.240;8.596;2022-12-20T13:05:00;19.70;;;11.13;;
3689;SDS011;1861;50.240;8.596;2022-12-20T13:07:52;20.07;;;10.77;;
3689;SDS011;1861;50.240;8.596;2022-12-20T13:13:25;16.70;;;10.30;;
3689;SDS011;1861;50.240;8.596;2022-12-20T13:16:04;20.27;;;11.60;;
3689;SDS011;1861;50.240;8.596;2022-12-20T13:21:39;17.97;;;11.30;;
3689;SDS011;1861;50.240;8.596;2022-12-20T13:27:13;20.10;;;10.60;;
3689;SDS011;1861;50.240;8.596;2022-12-20T13:29:52;19.60;;;10.27;;
3689;SDS011;1861;50.240;8.596;2022-12-20T13:36:04;18.63;;;10.83;;
3689;SDS011;1861;50.240;8.596;2022-12-20T13:39:01;18.00;;;11.00;;
3689;SDS011;1861;50.240;8.596;2022-12-20T13:42:04;19.50;;;10.50;;
3689;SDS011;1861;50.240;8.596;2022-12-20T13:44:42;19.87;;;11.70;;
3689;SDS011;1861;50.240;8.596;2022-12-20T13:47:28;22.37;;;11.60;;
3689;SDS011;1861;50.240;8.596;2022-12-20T13:50:01;19.67;;;11.03;;
3689;SDS011;1861;50.240;8.596;2022-12-20T13:52:47;19.90;;;10.43;;
3689;SDS011;1861;50.240;8.596;2022-12-20T13:55:22;18.80;;;11.30;;
3689;SDS011;1861;50.240;8.596;2022-12-20T13:57:58;25.93;;;11.50;;
3689;SDS011;1861;50.240;8.596;2022-12-20T14:00:31;18.87;;;12.00;;
3689;SDS011;1861;50.240;8.596;2022-12-20T14:03:00;20.60;;;11.33;;
3689;SDS011;1861;50.240;8.596;2022-12-20T14:05:32;18.60;;;10.67;;
3689;SDS011;1861;50.240;8.596;2022-12-20T14:08:04;18.50;;;11.37;;
3689;SDS011;1861;50.240;8.596;2022-12-20T14:10:35;19.37;;;10.70;;
3689;SDS011;1861;50.240;8.596;2022-12-20T14:13:13;24.23;;;12.37;;
3689;SDS011;1861;50.240;8.596;2022-12-20T14:15:46;19.90;;;10.80;;
3689;SDS011;1861;50.240;8.596;2022-12-20T14:18:16;19.07;;;11.20;;
3689;SDS011;1861;50.240;8.596;2022-12-20T14:20:46;17.57;;;11.27;;
3689;SDS011;1861;50.240;8.596;2022-12-20T14:23:18;23.47;;;11.70;;
3689;SDS011;1861;50.240;8.596;2022-12-20T14:25:49;22.53;;;11.90;;
3689;SDS011;1861;50.240;8.596;2022-12-20T14:28:30;23.37;;;11.80;;
3689;SDS011;1861;50.240;8.596;2022-12-20T14:31:04;19.33;;;11.20;;
3689;SDS011;1861;50.240;8.596;2022-12-20T14:33:35;22.70;;;12.07;;
3689;SDS011;1861;50.240;8.596;2022-12-20T14:36:09;21.87;;;11.40;;
3689;SDS011;1861;50.240;8.596;2022-12-20T14:38:45;17.00;;;10.80;;
3689;SDS011;1861;50.240;8.596;2022-12-20T14:41:30;20.20;;;10.90;;
3689;SDS011;1861;50.240;8.596;2022-12-20T14:44:03;18.20;;;11.70;;
3689;SDS011;1861;50.240;8.596;2022-12-20T14:46:45;20.00;;;11.77;;
3689;SDS011;1861;50.240;8.596;2022-12-20T14:49:17;22.03;;;12.17;;
3689;SDS011;1861;50.240;8.596;2022-12-20T14:51:49;20.70;;;10.90;;
3689;SDS011;1861;50.240;8.596;2022-12-20T14:54:18;18.63;;;10.60;;
3689;SDS011;1861;50.240;8.596;2022-12-20T14:57:09;18.90;;;10.03;;
3689;SDS011;1861;50.240;8.596;2022-12-20T14:59:40;18.37;;;11.43;;
3689;SDS011;1861;50.240;8.596;2022-12-20T15:08:19;17.70;;;10.97;;
3689;SDS011;1861;50.240;8.596;2022-12-20T15:10:50;19.90;;;12.47;;
3689;SDS011;1861;50.240;8.596;2022-12-20T15:13:21;21.07;;;11.70;;
3689;SDS011;1861;50.240;8.596;2022-12-20T15:15:54;24.57;;;10.70;;
3689;SDS011;1861;50.240;8.596;2022-12-20T15:18:25;19.33;;;10.47;;
3689;SDS011;1861;50.240;8.596;2022-12-20T15:21:04;18.33;;;10.60;;
3689;SDS011;1861;50.240;8.596;2022-12-20T15:23:33;20.50;;;11.03;;
3689;SDS011;1861;50.240;8.596;2022-12-20T15:26:01;17.40;;;10.47;;
3689;SDS011;1861;50.240;8.596;2022-12-20T15:28:30;18.13;;;10.63;;
3689;SDS011;1861;50.240;8.596;2022-12-20T15:31:00;20.67;;;10.57;;
3689;SDS011;1861;50.240;8.596;2022-12-20T15:33:30;20.97;;;9.27;;
3689;SDS011;1861;50.240;8.596;2022-12-20T15:36:00;14.60;;;8.77;;
3689;SDS011;1861;50.240;8.596;2022-12-20T15:38:29;18.83;;;10.60;;
3689;SDS011;1861;50.240;8.596;2022-12-20T15:41:18;18.87;;;10.13;;
3689;SDS011;1861;50.240;8.596;2022-12-20T15:43:49;23.20;;;11.43;;
3689;SDS011;1861;50.240;8.596;2022-12-20T15:46:21;25.13;;;14.00;;
3689;SDS011;1861;50.240;8.596;2022-12-20T15:48:49;25.43;;;11.10;;
3689;SDS011;1861;50.240;8.596;2022-12-20T15:51:20;17.70;;;10.20;;
3689;SDS011;1861;50.240;8.596;2022-12-20T15:53:53;17.23;;;10.07;;
3689;SDS011;1861;50.240;8.596;2022-12-20T15:56:22;19.70;;;10.60;;
3689;SDS011;1861;50.240;8.596;2022-12-20T15:58:51;25.43;;;12.80;;
3689;SDS011;1861;50.240;8.596;2022-12-20T16:01:20;26.13;;;13.80;;